Woodbury, Indiana
Current Conditions -  °F | °C
As of 7:35 AM on Tuesday 27 Jan 2015 (Local Time) from KMQJ Reporting Station
Overcast Overcast  
Wind Chill: 23°   Ceiling: 2000
Heat Index: 23°   Visibility: 10mi
Dew Point: 16°   Wind: 3mph
Humidity: 74%   Direction: 40°NE
Pressure: 30"   Gusts: NA
Location:  39.9249°N, 85.9217°W
Report Text: KMQJ 271235Z AUTO 04003KT 10SM BKN020 OVC026 M05/M09 A3000 RMK AO1
Loading
Personal Weather Stations






























Interactive Weather Map New forecast layout! Learn more

10-Day Weather Forecast

Advertisements
Track Severe Weather on mobile